Aérodrome :







RETROUVEZ-NOUS SUR...

 
LOGIN :

S'inscrire | Disclaimer

   EN    FR    IT 

 









Légende :    VFR   VFR Marginal   IFR   IFR Intensif   IFR Très Intensif
Visi : 
Plafond : 
>= 8 km
>= 3000ft
5 à 8 km
1000 à 3000 ft
1500m à 5 km
500 à 1000 ft
800 à 1500m
200 à 500 ft
< 800m
< 200 ft
Symboles :   Orages  Brouillard  Fortes neiges  Fortes précipitations  Vent > 20 kt






- Altitude de l'aérodrome : 71 ft
- Code IATA : YBC


CYBC - Baie Comeau

DERNIER METAR :
  • 190800Z AUTO 06008KT 1 1/4SM -SN OVC013 M15/M17 A3000 RMK SLP162

METARs EXPIRÉS :
  • 190724Z AUTO 05008KT 1 3/4SM -SN OVC017 M15/M18 A3001 RMK SLP167
  • 190719Z AUTO 06009KT 2 1/2SM -SN OVC017 M15/M18 A3002 RMK SLP168
  • 190700Z AUTO 07009KT 9SM -SN OVC017 M15/M18 A3002 RMK SLP171
  • 190652Z AUTO 06007KT 9SM -SN OVC017 M15/M18 A3003 RMK SLP172
  • 190600Z AUTO 09004KT 9SM BKN017 OVC075 M16/M19 A3005 RMK SLP180
  • 190541Z AUTO 07007KT 350V100 9SM BKN017 BKN070 OVC094 M16/M19 A3005 RMK SLP178

TAF AMD TAF CYBC
Valide du 19 à 08h jusqu'au 19 à 20h UTC


190801Z 1908/1920 05010KT 11/2SM -SN OVC012
TEMPO 1908/1920 6SM -SN OVC030 RMK FCST BASED ON AUTO OBS. NXT FCST BY 191400Z



MET'MAP, la Météo Aéronautique d'un coup d'oeil ! - Copyright ORBIFLY Décembre 2007 - Disclaimer

ORBIFLY MET'MAP TEAM :

Programmation & Développement : Alexandra Zaïnal
Sur une idée originale de : Baudouin d'Aumeries
Assistance à la programmation : Marc-Olivier Méhu
Soutien technique & logistique : Manuel Goepfert

Contact : metmap@orbifly.com




SOURCES & CREDITS :

   NOAA